Time;durP1;ratioP1;P1;durP2;ratioP2;P2;SDS_P1;SDS_P2;PMS_P1;PMS_P2;Temp;Humidity;BMP_temperature;BMP_pressure;BME280_temperature;BME280_humidity;BME280_pressure;Samples;Min_cycle;Max_cycle;Signal;HPM_P1;HPM_P2
2023/01/06 00:01:22;;;;;;;1.60;1.20;;;;;;;2.74;100.00;101370.28;4974673;28;20201;-73
2023/01/06 00:03:50;;;;;;;3.87;1.27;;;;;;;2.76;100.00;101367.75;4966944;28;20491;-73
2023/01/06 00:06:17;;;;;;;2.00;1.10;;;;;;;2.81;100.00;101367.03;4970198;28;20226;-73
2023/01/06 00:08:43;;;;;;;2.03;1.17;;;;;;;2.86;100.00;101367.06;4969987;28;20228;-74
2023/01/06 00:11:12;;;;;;;2.40;1.13;;;;;;;2.84;100.00;101374.78;4972326;28;20201;-73
2023/01/06 00:13:40;;;;;;;3.77;1.50;;;;;;;2.89;100.00;101379.16;4968832;28;21325;-73
2023/01/06 00:16:09;;;;;;;1.20;0.90;;;;;;;2.84;100.00;101369.63;4973355;28;20810;-74
2023/01/06 00:18:36;;;;;;;3.60;1.57;;;;;;;2.88;100.00;101374.84;4972521;28;20221;-73
2023/01/06 00:21:03;;;;;;;3.43;1.30;;;;;;;2.92;100.00;101363.72;4967945;28;20212;-73
2023/01/06 00:23:29;;;;;;;3.50;1.20;;;;;;;2.94;100.00;101369.81;4971528;28;20278;-73
2023/01/06 00:25:56;;;;;;;2.43;1.33;;;;;;;2.94;100.00;101367.22;4970674;28;20264;-73
2023/01/06 00:28:22;;;;;;;4.07;1.20;;;;;;;2.94;100.00;101359.50;4971372;28;20226;-74
2023/01/06 00:30:50;;;;;;;1.07;0.73;;;;;;;2.96;100.00;101361.25;4973141;28;20202;-73
2023/01/06 00:33:16;;;;;;;1.73;1.23;;;;;;;2.95;100.00;101356.94;4974570;28;20218;-73
2023/01/06 00:35:43;;;;;;;2.37;1.20;;;;;;;2.98;100.00;101354.41;4977032;28;20209;-74
2023/01/06 00:38:10;;;;;;;1.87;0.97;;;;;;;2.99;100.00;101363.00;4965108;28;20587;-73
2023/01/06 00:40:36;;;;;;;3.63;1.03;;;;;;;2.99;100.00;101361.31;4975834;28;20598;-74
2023/01/06 00:43:03;;;;;;;3.33;1.17;;;;;;;3.05;100.00;101357.09;4974059;28;20202;-73
2023/01/06 00:45:30;;;;;;;7.80;3.53;;;;;;;3.03;100.00;101352.78;4976866;28;20221;-73
2023/01/06 00:47:58;;;;;;;2.70;1.50;;;;;;;3.05;100.00;101349.38;4971811;28;20474;-73
2023/01/06 00:50:24;;;;;;;1.87;1.10;;;;;;;3.08;100.00;101350.28;4974785;28;20564;-73
2023/01/06 00:52:50;;;;;;;4.93;1.93;;;;;;;3.11;100.00;101341.72;4969460;28;20221;-73
2023/01/06 00:55:17;;;;;;;3.80;1.90;;;;;;;3.13;100.00;101353.81;4971208;28;20584;-73
2023/01/06 00:57:43;;;;;;;3.93;2.17;;;;;;;3.13;100.00;101358.97;4969968;28;20218;-74
2023/01/06 01:00:12;;;;;;;2.83;1.20;;;;;;;3.17;100.00;101365.88;4977301;28;20292;-74
2023/01/06 01:02:39;;;;;;;1.83;1.10;;;;;;;3.19;100.00;101365.91;4972491;28;20677;-74
2023/01/06 01:05:07;;;;;;;6.53;1.53;;;;;;;3.20;100.00;101365.94;4970626;28;20669;-73
2023/01/06 01:07:33;;;;;;;2.23;1.07;;;;;;;3.22;100.00;101371.97;4971784;28;20218;-73
2023/01/06 01:10:00;;;;;;;2.80;1.20;;;;;;;3.25;100.00;101373.72;4972653;28;20218;-73
2023/01/06 01:12:28;;;;;;;4.83;1.80;;;;;;;3.25;100.00;101378.88;4979052;28;20209;-74
2023/01/06 01:14:57;;;;;;;3.33;1.93;;;;;;;3.26;100.00;101384.94;4975353;28;20224;-73
2023/01/06 01:17:25;;;;;;;4.30;2.20;;;;;;;3.28;100.00;101389.25;4970813;28;20668;-73
2023/01/06 01:19:54;;;;;;;5.90;1.70;;;;;;;3.30;100.00;101386.69;4977603;28;20690;-73
2023/01/06 01:22:23;;;;;;;2.33;1.37;;;;;;;3.32;100.00;101382.44;4970596;28;20213;-73
2023/01/06 01:24:49;;;;;;;2.20;1.53;;;;;;;3.34;100.00;101383.31;4971682;28;20212;-73
2023/01/06 01:27:16;;;;;;;2.17;0.97;;;;;;;3.35;100.00;101382.50;4971290;28;20210;-73
2023/01/06 01:29:42;;;;;;;1.93;1.20;;;;;;;3.35;100.00;101374.75;4972917;28;20775;-73
2023/01/06 01:32:09;;;;;;;6.20;1.20;;;;;;;3.34;100.00;101375.59;4978486;28;20295;-74
2023/01/06 01:34:36;;;;;;;1.90;1.33;;;;;;;3.33;100.00;101373.88;4977991;28;20745;-73
2023/01/06 01:37:03;;;;;;;2.30;0.80;;;;;;;3.34;100.00;101370.44;4971969;28;20636;-73
2023/01/06 01:39:31;;;;;;;0.63;0.57;;;;;;;3.33;100.00;101371.28;4973335;28;20270;-73
2023/01/06 01:41:58;;;;;;;1.90;0.90;;;;;;;3.35;100.00;101373.03;4970456;28;20695;-73
2023/01/06 01:44:58;;;;;;;2.07;0.87;;;;;;;3.39;100.00;101371.38;4971865;28;20201;-74
2023/01/06 01:47:38;;;;;;;0.97;0.63;;;;;;;3.41;100.00;101372.25;4975787;28;20480;-73
2023/01/06 01:50:14;;;;;;;1.80;0.80;;;;;;;3.42;100.00;101367.13;4973871;28;20209;-74
2023/01/06 01:52:42;;;;;;;2.30;0.87;;;;;;;3.41;100.00;101361.94;4973262;28;20548;-73
2023/01/06 01:55:12;;;;;;;1.13;0.73;;;;;;;3.41;100.00;101360.25;4972723;28;20232;-73
2023/01/06 01:57:44;;;;;;;1.50;0.93;;;;;;;3.41;100.00;101368.00;4973308;28;20214;-73
2023/01/06 02:00:11;;;;;;;3.50;0.80;;;;;;;3.42;100.00;101361.97;4968733;28;20680;-73
2023/01/06 02:02:42;;;;;;;3.67;0.97;;;;;;;3.43;100.00;101362.88;4969244;28;20292;-75
2023/01/06 02:05:10;;;;;;;4.10;0.90;;;;;;;3.45;100.00;101365.44;4974863;28;20515;-75
2023/01/06 02:07:38;;;;;;;1.17;1.03;;;;;;;3.44;100.00;101374.88;4971907;28;20221;-73
2023/01/06 02:10:10;;;;;;;3.50;0.73;;;;;;;3.47;100.00;101361.19;4974792;28;20220;-74
2023/01/06 02:12:37;;;;;;;1.30;0.60;;;;;;;3.46;100.00;101357.72;4980089;28;20224;-73
2023/01/06 02:15:14;;;;;;;0.90;0.70;;;;;;;3.45;100.00;101358.59;4967679;28;20202;-73
2023/01/06 02:17:52;;;;;;;4.53;0.97;;;;;;;3.42;100.00;101353.38;4972012;28;20241;-73
2023/01/06 02:20:33;;;;;;;0.60;0.60;;;;;;;3.42;100.00;101354.22;4971842;28;20855;-73
2023/01/06 02:23:33;;;;;;;2.50;0.70;;;;;;;3.40;100.00;101342.19;4975854;28;20289;-73
2023/01/06 02:26:28;;;;;;;3.53;0.90;;;;;;;3.34;100.00;101345.53;4987123;28;20214;-74
2023/01/06 02:29:30;;;;;;;4.33;0.90;;;;;;;3.32;100.00;101339.47;4989445;28;20217;-73
2023/01/06 02:32:08;;;;;;;1.77;0.90;;;;;;;3.31;100.00;101336.91;4989246;28;20681;-73
2023/01/06 02:34:46;;;;;;;4.17;1.10;;;;;;;3.31;100.00;101340.34;4976273;28;20257;-74
2023/01/06 02:37:26;;;;;;;0.70;0.60;;;;;;;3.31;100.00;101337.75;4977063;28;20741;-73
2023/01/06 02:40:09;;;;;;;1.07;0.60;;;;;;;3.32;100.00;101339.47;4975948;28;20205;-74
2023/01/06 02:42:45;;;;;;;1.33;1.00;;;;;;;3.32;100.00;101339.47;4988240;28;20236;-73
2023/01/06 02:45:20;;;;;;;2.77;0.87;;;;;;;3.33;100.00;101332.63;4976550;28;20206;-73
2023/01/06 02:48:00;;;;;;;0.80;0.80;;;;;;;3.33;100.00;101336.06;4988850;28;20225;-73
2023/01/06 02:50:39;;;;;;;2.03;0.80;;;;;;;3.35;100.00;101325.78;4970724;28;20212;-73
2023/01/06 02:53:11;;;;;;;1.90;0.60;;;;;;;3.34;100.00;101321.44;4973877;28;20207;-74
2023/01/06 02:55:43;;;;;;;3.13;0.80;;;;;;;3.35;100.00;101320.63;4972936;28;20555;-73
2023/01/06 02:58:17;;;;;;;2.10;0.97;;;;;;;3.33;100.00;101320.59;4972959;28;20579;-73
2023/01/06 03:00:49;;;;;;;2.10;0.80;;;;;;;3.33;100.00;101324.91;4969004;28;20225;-73
2023/01/06 03:03:22;;;;;;;7.00;0.93;;;;;;;3.32;100.00;101330.88;4970005;28;20265;-73
2023/01/06 03:05:54;;;;;;;1.67;0.70;;;;;;;3.34;100.00;101324.03;4971552;28;20205;-74
2023/01/06 03:08:25;;;;;;;1.57;0.80;;;;;;;3.33;100.00;101319.75;4984154;28;20234;-74
2023/01/06 03:10:54;;;;;;;0.60;0.60;;;;;;;3.32;100.00;101318.00;4973498;28;20205;-74
2023/01/06 03:13:27;;;;;;;0.97;0.60;;;;;;;3.32;100.00;101305.09;4974522;28;20646;-74
2023/01/06 03:15:56;;;;;;;1.43;0.73;;;;;;;3.30;100.00;101310.22;4977343;28;20202;-73
2023/01/06 03:18:24;;;;;;;0.73;0.70;;;;;;;3.28;100.00;101309.34;4977855;28;20598;-73
2023/01/06 03:20:56;;;;;;;1.13;0.80;;;;;;;3.26;100.00;101302.44;4977282;28;20307;-73
2023/01/06 03:23:23;;;;;;;1.60;0.90;;;;;;;3.25;100.00;101303.28;4973264;28;20209;-73
2023/01/06 03:25:50;;;;;;;1.93;0.60;;;;;;;3.22;100.00;101289.50;4969101;28;20300;-73
2023/01/06 03:28:16;;;;;;;2.03;0.53;;;;;;;3.19;100.00;101280.88;4971975;28;20233;-73
2023/01/06 03:30:51;;;;;;;0.80;0.70;;;;;;;3.16;100.00;101275.66;4970113;28;20708;-73
2023/01/06 03:33:23;;;;;;;3.03;1.67;;;;;;;3.14;100.00;101275.63;4979050;28;20220;-73
2023/01/06 03:36:03;;;;;;;3.33;1.20;;;;;;;3.10;100.00;101273.88;4971900;28;20251;-73
2023/01/06 03:38:39;;;;;;;0.83;0.63;;;;;;;3.09;100.00;101276.41;4975529;28;20225;-73
2023/01/06 03:41:18;;;;;;;0.97;0.47;;;;;;;3.09;100.00;101268.69;4976129;28;20194;-73
2023/01/06 03:43:55;;;;;;;2.93;0.90;;;;;;;3.06;100.00;101266.94;4991049;28;20514;-73
2023/01/06 03:46:27;;;;;;;1.53;0.80;;;;;;;3.07;100.00;101260.06;4976292;28;20210;-73
2023/01/06 03:49:00;;;;;;;4.27;0.87;;;;;;;3.08;100.00;101260.09;4972116;28;20595;-73
2023/01/06 03:51:40;;;;;;;2.17;0.90;;;;;;;3.09;100.00;101256.66;4977698;28;20694;-73
2023/01/06 03:54:17;;;;;;;1.17;0.87;;;;;;;3.12;100.00;101255.84;4974930;28;20245;-74
2023/01/06 03:56:49;;;;;;;3.47;1.20;;;;;;;3.12;100.00;101264.44;4968418;28;20197;-73
2023/01/06 03:59:20;;;;;;;3.07;1.13;;;;;;;3.14;100.00;101265.31;4970381;28;20218;-74
2023/01/06 04:01:49;;;;;;;1.30;1.00;;;;;;;3.16;100.00;101255.03;4976870;28;20193;-73
2023/01/06 04:04:17;;;;;;;1.10;1.00;;;;;;;3.16;100.00;101258.47;4977028;28;20202;-73
2023/01/06 04:06:45;;;;;;;3.00;1.23;;;;;;;3.19;100.00;101263.69;4968663;28;20278;-73
2023/01/06 04:09:12;;;;;;;3.70;1.30;;;;;;;3.21;100.00;101255.97;4968046;28;20280;-73
2023/01/06 04:14:23;;;;;;;2.47;1.20;;;;;;;3.24;100.00;101261.19;4979569;28;20209;-73
2023/01/06 04:16:50;;;;;;;3.63;1.00;;;;;;;3.27;100.00;101265.50;4970412;28;20219;-73
2023/01/06 04:19:17;;;;;;;1.90;1.07;;;;;;;3.28;100.00;101268.09;4986680;28;20227;-74
2023/01/06 04:21:45;;;;;;;4.50;1.17;;;;;;;3.31;100.00;101254.41;4971125;28;20279;-73
2023/01/06 04:24:12;;;;;;;2.80;1.40;;;;;;;3.31;100.00;101247.53;4971679;28;20202;-73
2023/01/06 04:26:38;;;;;;;2.37;1.23;;;;;;;3.32;100.00;101244.09;4971442;28;20348;-73
2023/01/06 04:29:05;;;;;;;2.47;1.30;;;;;;;3.33;100.00;101242.41;4973514;28;20225;-73
2023/01/06 04:31:33;;;;;;;2.10;1.43;;;;;;;3.34;100.00;101238.97;4976841;28;20228;-74
2023/01/06 04:34:00;;;;;;;1.93;1.33;;;;;;;3.36;100.00;101239.84;4974411;28;20298;-73
2023/01/06 04:36:31;;;;;;;2.87;1.00;;;;;;;3.36;100.00;101239.84;4974168;28;20553;-73
2023/01/06 04:39:00;;;;;;;1.90;1.10;;;;;;;3.38;100.00;101246.78;4977748;28;20228;-73
2023/01/06 04:41:27;;;;;;;1.90;1.00;;;;;;;3.41;100.00;101233.03;4970992;28;20219;-73
2023/01/06 04:43:54;;;;;;;1.53;0.97;;;;;;;3.39;100.00;101225.31;4970532;28;20190;-73
2023/01/06 04:46:20;;;;;;;2.50;1.27;;;;;;;3.41;100.00;101230.47;4974698;28;20198;-73
2023/01/06 04:48:46;;;;;;;3.80;0.97;;;;;;;3.39;100.00;101219.28;4978507;28;20734;-73
2023/01/06 04:51:13;;;;;;;1.93;1.30;;;;;;;3.40;100.00;101224.44;4982005;28;20209;-74
2023/01/06 04:53:41;;;;;;;3.43;0.90;;;;;;;3.39;100.00;101217.59;4976896;28;20194;-73
2023/01/06 04:56:11;;;;;;;1.30;0.80;;;;;;;3.40;100.00;101205.56;4979197;28;20205;-73
2023/01/06 04:58:38;;;;;;;4.47;1.27;;;;;;;3.39;100.00;101193.50;4977246;28;20685;-73
2023/01/06 05:01:06;;;;;;;2.70;1.13;;;;;;;3.39;100.00;101196.97;4978836;28;22014;-73
2023/01/06 05:03:33;;;;;;;3.50;0.97;;;;;;;3.38;100.00;101197.78;4980927;28;20201;-73
2023/01/06 05:06:04;;;;;;;3.30;1.10;;;;;;;3.39;100.00;101201.22;4972733;28;20248;-73
2023/01/06 05:08:30;;;;;;;2.47;1.30;;;;;;;3.40;100.00;101192.66;4977485;28;20324;-73
2023/01/06 05:11:01;;;;;;;6.83;1.80;;;;;;;3.40;100.00;101187.50;4972276;28;20201;-74
2023/01/06 05:13:29;;;;;;;1.23;1.10;;;;;;;3.40;100.00;101193.50;4976793;28;20728;-73
2023/01/06 05:15:55;;;;;;;3.80;1.27;;;;;;;3.40;100.00;101184.94;4972244;28;20206;-74
2023/01/06 05:18:21;;;;;;;5.37;1.50;;;;;;;3.41;100.00;101190.09;4973904;28;20218;-73
2023/01/06 05:20:50;;;;;;;2.80;1.03;;;;;;;3.41;100.00;101184.94;4971433;28;20201;-73
2023/01/06 05:23:17;;;;;;;2.13;1.10;;;;;;;3.42;100.00;101184.09;4978188;28;20252;-73
2023/01/06 05:25:46;;;;;;;2.10;1.10;;;;;;;3.42;100.00;101185.81;4974921;28;20216;-73
2023/01/06 05:28:13;;;;;;;4.20;1.40;;;;;;;3.44;100.00;101180.66;4975675;28;20228;-74
2023/01/06 05:30:41;;;;;;;1.33;1.23;;;;;;;3.46;100.00;101184.13;4975603;28;20212;-73
2023/01/06 05:33:07;;;;;;;3.13;1.50;;;;;;;3.46;100.00;101184.97;4977222;28;20209;-74
2023/01/06 05:35:34;;;;;;;6.83;1.37;;;;;;;3.48;100.00;101182.44;4975238;28;20574;-73
2023/01/06 05:38:00;;;;;;;4.67;1.33;;;;;;;3.48;100.00;101174.69;4977517;28;20749;-73
2023/01/06 05:40:29;;;;;;;4.90;1.03;;;;;;;3.48;100.00;101172.97;4972311;28;20198;-73
2023/01/06 05:42:55;;;;;;;4.33;1.20;;;;;;;3.50;100.00;101173.00;4973063;28;20690;-73
2023/01/06 05:45:22;;;;;;;2.40;0.90;;;;;;;3.50;100.00;101178.16;4975278;28;20228;-73
2023/01/06 05:47:50;;;;;;;3.93;1.20;;;;;;;3.51;100.00;101170.44;4977262;28;20218;-74
2023/01/06 05:50:18;;;;;;;5.07;1.30;;;;;;;3.53;100.00;101168.75;4910933;29;20577;-72
2023/01/06 05:52:44;;;;;;;3.20;1.33;;;;;;;3.53;100.00;101173.91;4909755;29;20689;-71
2023/01/06 05:55:11;;;;;;;3.87;1.73;;;;;;;3.55;100.00;101168.75;4913905;29;20669;-72
2023/01/06 05:57:37;;;;;;;4.23;1.53;;;;;;;3.57;100.00;101174.78;4911480;29;20235;-72
2023/01/06 06:00:05;;;;;;;6.03;1.87;;;;;;;3.57;100.00;101167.06;4912748;29;20209;-71
2023/01/06 06:02:38;;;;;;;2.60;1.57;;;;;;;3.59;100.00;101170.53;4909977;29;20289;-72
2023/01/06 06:05:05;;;;;;;4.83;1.73;;;;;;;3.60;100.00;101161.94;4909435;29;20211;-71
2023/01/06 06:07:32;;;;;;;2.07;1.20;;;;;;;3.59;100.00;101153.34;4914369;29;20761;-72
2023/01/06 06:09:59;;;;;;;3.17;1.53;;;;;;;3.61;100.00;101153.38;4909656;29;20208;-72
2023/01/06 06:12:25;;;;;;;2.03;1.30;;;;;;;3.62;100.00;101152.50;4909038;29;20203;-71
2023/01/06 06:14:52;;;;;;;5.17;1.50;;;;;;;3.64;100.00;101152.53;4910583;29;20251;-73
2023/01/06 06:17:18;;;;;;;5.37;1.50;;;;;;;3.65;100.00;101152.53;4912314;29;20602;-72
2023/01/06 06:19:44;;;;;;;2.60;1.53;;;;;;;3.67;100.00;101150.84;4918293;29;20196;-71
2023/01/06 06:22:11;;;;;;;3.47;1.67;;;;;;;3.68;100.00;101141.41;4914335;29;20200;-72
2023/01/06 06:24:39;;;;;;;6.27;1.83;;;;;;;3.70;100.00;101144.88;4920421;29;20660;-72
2023/01/06 06:27:05;;;;;;;3.50;1.60;;;;;;;3.71;100.00;101136.25;4916372;29;20853;-71
2023/01/06 06:29:31;;;;;;;1.50;1.13;;;;;;;3.70;100.00;101132.81;4911427;29;20211;-72
2023/01/06 06:31:58;;;;;;;6.80;1.80;;;;;;;3.72;100.00;101131.13;4907935;29;20196;-73
2023/01/06 06:34:24;;;;;;;2.70;1.30;;;;;;;3.75;100.00;101130.31;4921269;29;20206;-73
2023/01/06 06:36:51;;;;;;;3.87;1.83;;;;;;;3.73;100.00;101127.72;4919384;29;20307;-73
2023/01/06 06:39:18;;;;;;;3.20;1.60;;;;;;;3.75;100.00;101133.75;4910485;29;20260;-72
2023/01/06 06:41:46;;;;;;;4.80;1.70;;;;;;;3.77;100.00;101137.19;4910893;29;20206;-71
2023/01/06 06:44:12;;;;;;;2.43;1.83;;;;;;;3.78;100.00;101135.47;4913159;29;20207;-72
2023/01/06 06:46:38;;;;;;;3.53;1.77;;;;;;;3.79;100.00;101124.31;4921672;29;20252;-73
2023/01/06 06:49:05;;;;;;;5.47;1.63;;;;;;;3.81;100.00;101107.13;4911385;29;20743;-73
2023/01/06 06:51:31;;;;;;;4.43;1.80;;;;;;;3.82;100.00;101106.28;4912548;29;20204;-72
2023/01/06 06:53:58;;;;;;;2.50;1.70;;;;;;;3.83;100.00;101095.09;4926464;29;20208;-72
2023/01/06 06:56:24;;;;;;;2.47;1.50;;;;;;;3.85;100.00;101098.56;4916057;29;20216;-71
2023/01/06 06:58:52;;;;;;;9.00;1.50;;;;;;;3.87;100.00;101094.31;4913500;29;20296;-72
2023/01/06 07:01:20;;;;;;;3.43;1.93;;;;;;;3.89;100.00;101092.59;4905160;29;20705;-73
2023/01/06 07:03:47;;;;;;;6.40;1.90;;;;;;;3.93;100.00;101096.06;4907166;29;20211;-71
2023/01/06 07:06:17;;;;;;;4.53;2.40;;;;;;;3.94;100.00;101090.94;4905227;29;20200;-73
2023/01/06 07:08:44;;;;;;;5.13;2.17;;;;;;;3.97;100.00;101103.88;4913803;29;20214;-73
2023/01/06 07:11:10;;;;;;;4.90;2.30;;;;;;;4.00;100.00;101095.28;4905106;29;20811;-72
2023/01/06 07:13:36;;;;;;;2.83;1.73;;;;;;;4.02;100.00;101096.13;4907862;29;20688;-73
2023/01/06 07:16:05;;;;;;;3.43;1.77;;;;;;;4.04;100.00;101088.41;4915010;29;20237;-72
2023/01/06 07:18:31;;;;;;;5.07;2.00;;;;;;;4.06;100.00;101077.25;4916358;29;20227;-72
2023/01/06 07:20:58;;;;;;;2.90;2.07;;;;;;;4.09;100.00;101068.69;4913328;29;20200;-72
2023/01/06 07:23:24;;;;;;;6.03;2.47;;;;;;;4.12;100.00;101072.13;4917138;29;20797;-72
2023/01/06 07:25:52;;;;;;;5.17;3.00;;;;;;;4.14;100.00;101069.56;4913272;29;20215;-72
2023/01/06 07:28:18;;;;;;;4.67;2.27;;;;;;;4.17;100.00;101072.19;4919039;29;20224;-72
2023/01/06 07:30:45;;;;;;;4.90;1.90;;;;;;;4.21;100.00;101071.34;4914732;29;20577;-72
2023/01/06 07:33:12;;;;;;;3.03;2.00;;;;;;;4.25;100.00;101074.81;4916364;29;20231;-72
2023/01/06 07:35:39;;;;;;;3.83;2.40;;;;;;;4.28;100.00;101080.84;4918925;29;20197;-72
2023/01/06 07:38:07;;;;;;;6.30;2.40;;;;;;;4.31;100.00;101082.59;4918318;29;20223;-72
2023/01/06 07:40:33;;;;;;;4.87;2.73;;;;;;;4.35;100.00;101092.09;4918167;29;20212;-71
2023/01/06 07:43:03;;;;;;;4.33;2.63;;;;;;;4.38;100.00;101083.50;4915403;29;20204;-72
2023/01/06 07:45:29;;;;;;;3.97;2.37;;;;;;;4.41;100.00;101089.53;4911837;29;20216;-71
2023/01/06 07:47:56;;;;;;;4.17;2.57;;;;;;;4.44;100.00;101076.66;4919979;29;20255;-72
2023/01/06 07:50:24;;;;;;;3.33;2.27;;;;;;;4.47;100.00;101073.25;4918499;29;20213;-73
2023/01/06 07:52:50;;;;;;;3.20;2.03;;;;;;;4.50;100.00;101068.97;4915635;29;20200;-73
2023/01/06 07:55:16;;;;;;;8.53;2.83;;;;;;;4.51;100.00;101057.75;4914250;29;20200;-73
2023/01/06 07:57:43;;;;;;;3.93;2.57;;;;;;;4.55;100.00;101061.22;4924071;29;20223;-71
2023/01/06 08:00:11;;;;;;;6.23;3.20;;;;;;;4.57;100.00;101056.94;4913132;29;20204;-72
2023/01/06 08:02:40;;;;;;;6.73;4.60;;;;;;;4.62;100.00;101054.38;4908936;29;20207;-71
2023/01/06 08:05:06;;;;;;;3.93;2.57;;;;;;;4.64;100.00;101040.59;4913677;29;20204;-73
2023/01/06 08:07:34;;;;;;;4.63;3.83;;;;;;;4.68;100.00;101033.75;4914612;29;20254;-73
2023/01/06 08:10:00;;;;;;;6.73;3.90;;;;;;;4.70;100.00;101035.47;4914181;29;20226;-73
2023/01/06 08:12:27;;;;;;;4.50;3.27;;;;;;;4.74;100.00;101033.78;4931630;29;20199;-73
2023/01/06 08:14:54;;;;;;;4.37;3.10;;;;;;;4.76;100.00;101036.38;4912356;29;20222;-72
2023/01/06 08:17:20;;;;;;;6.07;3.67;;;;;;;4.78;100.00;101024.31;4916896;29;20262;-72
2023/01/06 08:19:46;;;;;;;5.03;2.90;;;;;;;4.82;100.00;101016.59;4915694;29;20200;-72
2023/01/06 08:22:13;;;;;;;7.90;3.20;;;;;;;4.84;100.00;101021.78;4924353;29;20226;-73
2023/01/06 08:24:41;;;;;;;6.57;3.27;;;;;;;4.87;100.00;101021.75;4919245;29;20673;-73
2023/01/06 08:27:07;;;;;;;5.37;2.80;;;;;;;4.89;100.00;101028.69;4921405;29;20228;-72
2023/01/06 08:29:33;;;;;;;4.27;2.53;;;;;;;4.91;100.00;101029.53;4923978;29;20660;-72
2023/01/06 08:32:00;;;;;;;3.63;2.67;;;;;;;4.94;100.00;101031.25;4927258;29;20290;-73
2023/01/06 08:34:26;;;;;;;6.53;2.77;;;;;;;4.97;100.00;101027.84;4922265;29;20720;-72
2023/01/06 08:36:53;;;;;;;5.47;2.90;;;;;;;4.98;100.00;101021.78;4920011;29;20212;-72
2023/01/06 08:39:19;;;;;;;4.80;2.73;;;;;;;5.02;100.00;101018.38;4921578;29;20195;-72
2023/01/06 08:41:50;;;;;;;7.23;3.37;;;;;;;5.03;100.00;101013.22;4922948;29;20200;-72
2023/01/06 08:44:18;;;;;;;4.63;3.10;;;;;;;5.08;100.00;101008.94;4918991;29;20274;-72
2023/01/06 08:46:44;;;;;;;7.07;2.83;;;;;;;5.12;100.00;101021.00;4918636;29;20230;-71
2023/01/06 08:49:11;;;;;;;5.57;2.80;;;;;;;5.18;100.00;101022.72;4928330;29;20230;-72
2023/01/06 08:51:37;;;;;;;4.83;2.67;;;;;;;5.23;100.00;101026.19;4921986;29;20210;-71
2023/01/06 08:54:04;;;;;;;6.47;2.93;;;;;;;5.26;100.00;101036.53;4921152;29;20199;-72
2023/01/06 08:56:32;;;;;;;4.53;2.93;;;;;;;5.29;100.00;101033.09;4914010;29;20584;-72
2023/01/06 08:59:02;;;;;;;7.00;3.87;;;;;;;5.31;100.00;101034.84;4911578;29;20204;-72
2023/01/06 09:01:31;;;;;;;10.07;5.17;;;;;;;5.32;100.00;101036.53;4919883;29;20212;-71
2023/01/06 09:04:00;;;;;;;15.83;10.90;;;;;;;5.37;100.00;101035.72;4923066;29;20208;-72
2023/01/06 09:06:27;;;;;;;20.77;11.87;;;;;;;5.41;100.00;101029.66;4914538;29;20207;-73
2023/01/06 09:08:54;;;;;;;15.83;11.10;;;;;;;5.43;100.00;101025.34;4923808;29;20218;-73
2023/01/06 09:11:21;;;;;;;10.03;6.40;;;;;;;5.46;100.00;101026.22;4920498;29;20216;-73
2023/01/06 09:13:49;;;;;;;8.60;6.20;;;;;;;5.51;100.00;101023.66;4924066;29;20204;-71
2023/01/06 09:16:18;;;;;;;9.77;6.27;;;;;;;5.56;100.00;101018.47;4911355;29;20291;-73
2023/01/06 09:18:48;;;;;;;5.67;3.77;;;;;;;5.60;100.00;101020.22;4911376;29;20220;-72
2023/01/06 09:21:15;;;;;;;5.57;3.70;;;;;;;5.64;100.00;101021.94;4931845;29;20210;-72
2023/01/06 09:23:41;;;;;;;6.63;4.57;;;;;;;5.68;100.00;101014.19;4915066;29;20226;-73
2023/01/06 09:26:08;;;;;;;8.87;4.80;;;;;;;5.74;100.00;101021.06;4915766;29;20208;-72
2023/01/06 09:28:35;;;;;;;6.70;3.77;;;;;;;5.78;100.00;101019.34;4911641;29;20300;-73
2023/01/06 09:31:03;;;;;;;4.43;3.57;;;;;;;5.82;100.00;101021.06;4916356;29;20258;-73
2023/01/06 09:33:32;;;;;;;8.07;3.87;;;;;;;5.85;100.00;101015.88;4915454;29;20787;-72
2023/01/06 09:35:59;;;;;;;4.73;2.90;;;;;;;5.89;100.00;101027.97;4915923;29;20216;-73
2023/01/06 09:38:27;;;;;;;3.87;3.00;;;;;;;5.93;100.00;101018.47;4906614;29;20228;-72
2023/01/06 09:41:10;;;;;;;5.23;2.67;;;;;;;5.96;100.00;101021.97;4919824;29;20259;-72
2023/01/06 09:43:46;;;;;;;3.77;2.50;;;;;;;5.99;100.00;101018.50;4924627;29;20208;-73
2023/01/06 09:46:15;;;;;;;5.63;3.33;;;;;;;6.04;100.00;101014.19;4919226;29;20217;-72
2023/01/06 09:48:56;;;;;;;5.60;3.03;;;;;;;6.10;100.00;101002.97;4915861;29;20256;-72
2023/01/06 09:51:25;;;;;;;5.10;3.20;;;;;;;6.13;100.00;101008.13;4931601;29;20917;-72
2023/01/06 09:53:57;;;;;;;7.53;4.37;;;;;;;6.14;100.00;101002.97;4903768;29;20221;-72
2023/01/06 09:56:25;;;;;;;6.77;4.53;;;;;;;6.17;100.00;100996.91;4926412;29;20201;-73
2023/01/06 09:58:56;;;;;;;8.07;3.80;;;;;;;6.19;100.00;100996.06;4904602;29;20222;-73
2023/01/06 10:01:30;;;;;;;5.17;3.50;;;;;;;6.21;100.00;100976.19;4915166;29;20205;-73
2023/01/06 10:03:59;;;;;;;4.97;3.43;;;;;;;6.26;100.00;100991.69;4917695;29;20217;-73
2023/01/06 10:06:33;;;;;;;5.53;2.80;;;;;;;6.27;100.00;100988.25;4914593;29;20239;-73
2023/01/06 10:09:09;;;;;;;5.87;3.00;;;;;;;6.31;100.00;100978.75;4927658;29;20463;-73
2023/01/06 10:11:49;;;;;;;5.50;2.83;;;;;;;6.33;100.00;100961.47;4916977;29;20444;-73
2023/01/06 10:14:24;;;;;;;3.57;2.87;;;;;;;6.41;100.00;100970.94;4920269;29;21136;-73
2023/01/06 10:17:06;;;;;;;4.63;2.97;;;;;;;6.47;100.00;100959.69;4912945;29;20223;-72
2023/01/06 10:19:49;;;;;;;5.97;3.40;;;;;;;6.52;100.00;100962.25;4907921;29;20581;-73
2023/01/06 10:22:26;;;;;;;3.87;2.80;;;;;;;6.58;100.00;100959.66;4915649;29;20232;-73
2023/01/06 10:24:59;;;;;;;5.43;3.43;;;;;;;6.62;100.00;100946.66;4921705;29;20204;-72
2023/01/06 10:27:27;;;;;;;6.13;3.63;;;;;;;6.70;100.00;100958.72;4909215;29;20230;-72
2023/01/06 10:29:56;;;;;;;5.37;3.23;;;;;;;6.77;100.00;100952.66;4919558;29;20226;-73
2023/01/06 10:32:28;;;;;;;4.60;3.17;;;;;;;6.85;100.00;100950.88;4911490;29;20237;-72
2023/01/06 10:34:56;;;;;;;5.27;3.40;;;;;;;6.89;100.00;100944.78;4908620;29;20578;-71
2023/01/06 10:37:25;;;;;;;5.70;3.40;;;;;;;6.94;100.00;100939.59;4903872;29;20231;-73
2023/01/06 10:39:59;;;;;;;5.20;3.43;;;;;;;6.98;100.00;100929.22;4909402;29;20298;-73
2023/01/06 10:45:16;;;;;;;11.87;6.47;;;;;;;7.13;100.00;100910.09;4912098;29;20206;-72
2023/01/06 10:47:43;;;;;;;6.20;4.43;;;;;;;7.17;100.00;100897.94;4908204;29;20286;-72
2023/01/06 10:50:14;;;;;;;5.63;4.50;;;;;;;7.24;100.00;100899.63;4911771;29;20274;-72
2023/01/06 10:52:41;;;;;;;11.33;5.77;;;;;;;7.29;100.00;100895.25;4908787;29;20264;-72
2023/01/06 10:55:16;;;;;;;8.23;5.23;;;;;;;7.28;100.00;100892.69;4908711;29;20230;-72
2023/01/06 10:57:43;;;;;;;8.70;5.00;;;;;;;7.30;100.00;100888.31;4911205;29;20429;-72
2023/01/06 11:00:19;;;;;;;6.17;4.27;;;;;;;7.33;100.00;100907.31;4921231;29;20208;-72
2023/01/06 11:02:47;;;;;;;9.03;4.40;;;;;;;7.34;100.00;100903.88;4914478;29;20903;-72
2023/01/06 11:05:17;;;;;;;5.60;3.73;;;;;;;7.33;100.00;100893.50;4912537;29;20203;-72
2023/01/06 11:08:04;;;;;;;7.53;3.90;;;;;;;7.37;100.00;100882.25;4912409;29;20728;-72
2023/01/06 11:10:36;;;;;;;4.80;3.70;;;;;;;7.41;100.00;100875.28;4921132;29;20667;-72
2023/01/06 11:13:04;;;;;;;6.20;3.63;;;;;;;7.41;100.00;100881.34;4916427;29;20209;-72
2023/01/06 11:15:38;;;;;;;4.83;3.40;;;;;;;7.41;100.00;100878.75;4919646;29;20712;-73
2023/01/06 11:18:15;;;;;;;5.53;3.50;;;;;;;7.40;100.00;100869.22;4910581;29;20231;-73
2023/01/06 11:20:42;;;;;;;5.00;3.97;;;;;;;7.42;100.00;100870.06;4911100;29;20199;-73
2023/01/06 11:23:18;;;;;;;5.63;3.90;;;;;;;7.42;100.00;100875.25;4897844;29;20213;-71
2023/01/06 11:26:00;;;;;;;4.47;3.53;;;;;;;7.43;100.00;100874.38;4912058;29;20571;-71
2023/01/06 11:28:27;;;;;;;4.83;3.27;;;;;;;7.44;100.00;100872.66;4910343;29;20259;-72
2023/01/06 11:30:57;;;;;;;5.10;3.20;;;;;;;7.46;100.00;100874.38;4911853;29;20203;-73
2023/01/06 11:33:25;;;;;;;5.10;3.50;;;;;;;7.46;100.00;100861.41;4911995;29;20199;-73
2023/01/06 11:35:54;;;;;;;4.90;3.43;;;;;;;7.52;100.00;100863.06;4912087;29;20661;-73
2023/01/06 11:38:22;;;;;;;4.63;3.20;;;;;;;7.57;100.00;100846.56;4922775;29;20225;-72
2023/01/06 11:40:50;;;;;;;5.77;3.10;;;;;;;7.62;100.00;100851.72;4915581;29;20275;-73